Time;durP1;ratioP1;P1;durP2;ratioP2;P2;SDS_P1;SDS_P2;PMS_P1;PMS_P2;Temp;Humidity;BMP_temperature;BMP_pressure;BME280_temperature;BME280_humidity;BME280_pressure;Samples;Min_cycle;Max_cycle;Signal;HPM_P1;HPM_P2
2023/08/07 00:00:10;;;;;;;3.00;1.80;;;12.70;99.90;;;;;;4971652;28;20487;-65
2023/08/07 00:02:38;;;;;;;2.73;1.83;;;12.60;99.90;;;;;;4970553;28;20564;-65
2023/08/07 00:05:06;;;;;;;3.03;1.63;;;12.70;99.90;;;;;;4978884;28;20577;-65
2023/08/07 00:07:34;;;;;;;6.60;2.53;;;12.70;99.90;;;;;;4990879;28;20453;-66
2023/08/07 00:10:03;;;;;;;7.73;1.77;;;12.60;99.90;;;;;;4990733;28;20875;-65
2023/08/07 00:12:31;;;;;;;3.63;1.80;;;12.60;99.90;;;;;;4989666;28;20451;-60
2023/08/07 00:14:59;;;;;;;2.30;1.63;;;12.70;99.90;;;;;;4990777;28;20886;-65
2023/08/07 00:17:28;;;;;;;2.33;1.70;;;12.70;99.90;;;;;;4990912;28;20535;-66
2023/08/07 00:19:56;;;;;;;3.43;1.33;;;12.70;99.90;;;;;;4990905;28;20455;-65
2023/08/07 00:22:26;;;;;;;4.93;2.10;;;12.70;99.90;;;;;;4987843;28;20454;-64
2023/08/07 00:24:54;;;;;;;2.00;1.60;;;12.70;99.90;;;;;;4990532;28;20896;-65
2023/08/07 00:27:22;;;;;;;2.37;1.40;;;12.70;99.90;;;;;;4990664;28;20546;-65
2023/08/07 00:29:50;;;;;;;1.97;1.43;;;12.70;99.90;;;;;;4990493;28;20508;-65
2023/08/07 00:32:17;;;;;;;1.80;1.40;;;12.70;99.90;;;;;;4989166;28;20848;-65
2023/08/07 00:34:47;;;;;;;3.87;1.90;;;12.70;99.90;;;;;;4989820;28;20538;-65
2023/08/07 00:37:15;;;;;;;2.17;1.97;;;12.70;99.90;;;;;;4990122;28;20551;-65
2023/08/07 00:39:43;;;;;;;2.67;2.30;;;12.70;99.90;;;;;;4971287;28;20442;-65
2023/08/07 00:42:11;;;;;;;6.13;2.33;;;12.80;99.90;;;;;;4970809;28;20450;-65
2023/08/07 00:44:39;;;;;;;3.20;2.33;;;12.80;99.90;;;;;;4970159;28;20515;-65
2023/08/07 00:47:07;;;;;;;4.30;3.13;;;12.90;99.90;;;;;;4971034;28;20526;-65
2023/08/07 00:49:36;;;;;;;3.20;2.13;;;12.80;99.90;;;;;;4971210;28;20454;-65
2023/08/07 00:52:07;;;;;;;3.97;2.30;;;12.90;99.90;;;;;;4970831;28;20454;-65
2023/08/07 00:54:35;;;;;;;6.83;2.30;;;12.90;99.90;;;;;;4977305;28;20541;-65
2023/08/07 00:57:10;;;;;;;4.57;1.90;;;12.90;99.90;;;;;;4989654;28;20487;-65
2023/08/07 00:59:39;;;;;;;2.83;1.77;;;12.90;99.90;;;;;;4972666;28;20800;-64
2023/08/07 01:02:07;;;;;;;2.33;1.70;;;12.90;99.90;;;;;;4970414;28;20454;-64
2023/08/07 01:04:36;;;;;;;2.87;1.80;;;12.90;99.90;;;;;;4969952;28;20481;-66
2023/08/07 01:07:06;;;;;;;4.17;1.60;;;13.00;99.90;;;;;;4970801;28;20444;-64
2023/08/07 01:09:34;;;;;;;6.43;1.90;;;12.90;99.90;;;;;;4971216;28;20532;-65
2023/08/07 01:12:11;;;;;;;2.20;1.50;;;12.90;99.90;;;;;;4988984;28;20512;-64
2023/08/07 01:14:48;;;;;;;6.53;2.00;;;13.00;99.90;;;;;;4989571;28;20493;-64
2023/08/07 01:17:17;;;;;;;4.47;1.60;;;12.90;99.90;;;;;;4990762;28;20442;-65
2023/08/07 01:19:46;;;;;;;3.00;1.50;;;13.00;99.90;;;;;;4990798;28;20443;-65
2023/08/07 01:22:17;;;;;;;3.53;1.87;;;13.00;99.90;;;;;;4990224;28;20444;-65
2023/08/07 01:24:46;;;;;;;2.23;2.00;;;13.00;99.90;;;;;;4989667;28;20493;-65
2023/08/07 01:27:25;;;;;;;3.03;1.77;;;13.00;99.90;;;;;;4988622;28;20476;-65
2023/08/07 01:30:01;;;;;;;2.33;1.43;;;13.00;99.90;;;;;;4990218;28;20450;-64
2023/08/07 01:32:40;;;;;;;2.97;1.57;;;13.00;99.90;;;;;;4989134;28;20441;-64
2023/08/07 01:35:10;;;;;;;2.70;1.70;;;13.00;99.90;;;;;;4990150;28;20471;-65
2023/08/07 01:37:42;;;;;;;1.90;1.30;;;13.00;99.90;;;;;;4989791;28;20823;-66
2023/08/07 01:40:11;;;;;;;2.70;1.63;;;13.00;99.90;;;;;;4989942;28;20882;-65
2023/08/07 01:42:40;;;;;;;1.90;1.80;;;13.00;99.90;;;;;;4988640;28;20436;-65
2023/08/07 01:45:08;;;;;;;5.10;2.00;;;13.00;99.90;;;;;;4993351;28;20492;-65
2023/08/07 01:47:36;;;;;;;3.03;1.40;;;13.00;99.90;;;;;;4993533;28;20472;-65
2023/08/07 01:50:05;;;;;;;4.10;1.60;;;13.00;99.90;;;;;;4993424;28;20451;-65
2023/08/07 01:52:33;;;;;;;2.40;1.77;;;13.00;99.90;;;;;;4991901;28;20567;-65
2023/08/07 01:55:03;;;;;;;2.63;1.30;;;13.00;99.90;;;;;;4993232;28;20457;-65
2023/08/07 01:57:31;;;;;;;4.87;1.67;;;13.00;99.90;;;;;;4993403;28;20536;-64
2023/08/07 01:59:59;;;;;;;3.83;1.63;;;13.00;99.90;;;;;;4993189;28;20448;-65
2023/08/07 02:02:27;;;;;;;7.03;1.70;;;13.00;99.90;;;;;;4991094;28;21300;-63
2023/08/07 02:04:55;;;;;;;2.70;1.57;;;13.00;99.90;;;;;;4986602;28;20489;-64
2023/08/07 02:07:23;;;;;;;2.90;1.53;;;12.90;99.90;;;;;;4973821;28;20838;-65
2023/08/07 02:09:51;;;;;;;1.70;1.30;;;12.90;99.90;;;;;;4973770;28;20506;-65
2023/08/07 02:12:20;;;;;;;5.27;2.20;;;12.90;99.90;;;;;;4973063;28;21085;-65
2023/08/07 02:14:48;;;;;;;4.80;2.50;;;12.90;99.90;;;;;;4973044;28;20468;-65
2023/08/07 02:17:16;;;;;;;3.50;1.60;;;12.90;99.90;;;;;;4973690;28;20677;-64
2023/08/07 02:19:44;;;;;;;4.70;1.73;;;12.90;99.90;;;;;;4973571;28;20543;-65
2023/08/07 02:22:12;;;;;;;2.70;1.60;;;12.90;99.90;;;;;;4974116;28;20532;-65
2023/08/07 02:24:40;;;;;;;3.37;1.50;;;12.90;99.90;;;;;;4972337;28;20510;-65
2023/08/07 02:27:08;;;;;;;3.10;1.60;;;12.90;99.90;;;;;;4973411;28;20817;-65
2023/08/07 02:29:38;;;;;;;3.70;1.70;;;12.90;99.90;;;;;;4973045;28;20484;-64
2023/08/07 02:32:06;;;;;;;4.43;1.73;;;12.80;99.90;;;;;;4972872;28;20443;-64
2023/08/07 02:34:34;;;;;;;4.50;2.27;;;12.60;99.90;;;;;;4972588;28;20826;-65
2023/08/07 02:37:03;;;;;;;3.27;1.67;;;12.60;99.90;;;;;;4973759;28;21023;-64
2023/08/07 02:39:31;;;;;;;3.87;1.67;;;12.60;99.90;;;;;;4992505;28;20554;-65
2023/08/07 02:41:59;;;;;;;3.80;2.40;;;12.60;99.90;;;;;;4992245;28;20443;-65
2023/08/07 02:44:27;;;;;;;3.23;1.57;;;12.60;99.90;;;;;;4985438;28;21032;-65
2023/08/07 02:46:56;;;;;;;2.47;1.70;;;12.60;99.90;;;;;;4973114;28;20445;-66
2023/08/07 02:49:24;;;;;;;4.00;2.17;;;12.60;99.90;;;;;;4973299;28;20473;-65
2023/08/07 02:51:52;;;;;;;4.47;2.27;;;12.60;99.90;;;;;;4973141;28;20523;-66
2023/08/07 02:54:20;;;;;;;2.90;1.70;;;12.60;99.90;;;;;;4979594;28;20471;-66
2023/08/07 02:56:48;;;;;;;2.57;1.80;;;12.60;99.90;;;;;;4992311;28;21045;-67
2023/08/07 02:59:17;;;;;;;4.43;1.90;;;12.60;99.90;;;;;;4992177;28;20949;-66
2023/08/07 03:01:45;;;;;;;6.80;2.00;;;12.60;99.90;;;;;;4992298;28;20440;-66
2023/08/07 03:04:14;;;;;;;3.20;2.10;;;12.60;99.90;;;;;;4990949;28;20487;-66
2023/08/07 03:06:42;;;;;;;3.40;2.53;;;12.60;99.90;;;;;;4992139;28;20481;-66
2023/08/07 03:09:11;;;;;;;2.83;2.20;;;12.60;99.90;;;;;;4991958;28;20457;-67
2023/08/07 03:11:39;;;;;;;4.10;2.00;;;12.60;99.90;;;;;;4974652;28;20538;-66
2023/08/07 03:14:07;;;;;;;3.30;1.53;;;12.60;99.90;;;;;;4971581;28;20462;-66
2023/08/07 03:16:35;;;;;;;4.90;2.27;;;12.60;99.90;;;;;;4972712;28;20444;-66
2023/08/07 03:19:03;;;;;;;2.33;1.50;;;12.60;99.90;;;;;;4972602;28;20451;-66
2023/08/07 03:21:32;;;;;;;4.40;1.60;;;12.60;99.90;;;;;;4972487;28;20543;-66
2023/08/07 03:24:00;;;;;;;3.57;2.03;;;12.70;99.90;;;;;;4971072;28;20556;-66
2023/08/07 03:26:28;;;;;;;4.70;1.80;;;12.60;99.90;;;;;;4977345;28;20524;-65
2023/08/07 03:28:56;;;;;;;3.77;2.00;;;12.70;99.90;;;;;;4991502;28;20453;-66
2023/08/07 03:31:24;;;;;;;3.83;1.70;;;12.70;99.90;;;;;;4991500;28;20451;-66
2023/08/07 03:33:53;;;;;;;2.50;1.63;;;12.60;99.90;;;;;;4990184;28;20486;-63
2023/08/07 03:36:21;;;;;;;3.20;1.70;;;12.70;99.90;;;;;;4991299;28;20524;-64
2023/08/07 03:38:50;;;;;;;3.00;1.53;;;12.70;99.90;;;;;;4991580;28;20825;-64
2023/08/07 03:41:18;;;;;;;3.60;2.73;;;12.70;99.90;;;;;;4975034;28;21052;-64
2023/08/07 03:43:47;;;;;;;4.33;1.87;;;12.70;99.90;;;;;;4970711;28;20474;-64
2023/08/07 03:46:15;;;;;;;3.00;1.93;;;12.70;99.90;;;;;;4971893;28;21100;-64
2023/08/07 03:48:43;;;;;;;4.27;2.70;;;12.70;99.90;;;;;;4971706;28;20443;-64
2023/08/07 03:51:11;;;;;;;5.63;1.83;;;12.70;99.90;;;;;;4979892;28;20464;-64
2023/08/07 03:53:39;;;;;;;3.07;1.57;;;12.70;99.90;;;;;;4989982;28;20874;-64
2023/08/07 03:56:08;;;;;;;5.27;1.93;;;12.70;99.90;;;;;;4991130;28;20439;-63
2023/08/07 03:58:36;;;;;;;5.83;1.87;;;12.70;99.90;;;;;;4991041;28;20448;-66
2023/08/07 04:01:04;;;;;;;6.27;2.20;;;12.70;99.90;;;;;;4991169;28;20516;-65
2023/08/07 04:03:32;;;;;;;5.00;1.80;;;12.70;99.90;;;;;;4989637;28;20438;-65
2023/08/07 04:06:01;;;;;;;3.97;2.17;;;12.70;99.90;;;;;;4975915;28;20568;-66
2023/08/07 04:08:29;;;;;;;5.40;1.90;;;12.70;99.90;;;;;;4971147;28;20573;-65
2023/08/07 04:11:01;;;;;;;3.20;1.67;;;12.70;99.90;;;;;;4971583;28;20460;-66
2023/08/07 04:13:32;;;;;;;3.87;2.00;;;12.70;99.90;;;;;;4970241;28;20452;-65
2023/08/07 04:16:00;;;;;;;2.30;1.80;;;12.70;99.90;;;;;;4971355;28;20514;-65
2023/08/07 04:18:28;;;;;;;3.90;1.53;;;12.70;99.90;;;;;;4971648;28;20527;-66
2023/08/07 04:20:58;;;;;;;3.70;1.80;;;12.70;99.90;;;;;;4972278;28;20460;-66
2023/08/07 04:23:26;;;;;;;4.70;1.97;;;12.70;99.90;;;;;;4970347;28;20447;-65
2023/08/07 04:25:54;;;;;;;4.40;1.53;;;12.80;99.90;;;;;;4971528;28;20484;-64
2023/08/07 04:28:23;;;;;;;2.50;1.97;;;12.80;99.90;;;;;;4971376;28;20705;-66
2023/08/07 04:30:53;;;;;;;3.67;2.97;;;12.80;99.90;;;;;;4971443;28;20516;-66
2023/08/07 04:33:21;;;;;;;2.17;1.27;;;12.80;99.90;;;;;;4970458;28;20440;-65
2023/08/07 04:35:49;;;;;;;3.67;2.00;;;12.80;99.90;;;;;;4971368;28;20450;-66
2023/08/07 04:38:18;;;;;;;10.33;3.80;;;12.80;99.90;;;;;;4972723;28;20546;-66
2023/08/07 04:40:46;;;;;;;4.70;1.80;;;12.80;99.90;;;;;;4971343;28;20935;-65
2023/08/07 04:43:14;;;;;;;5.57;1.90;;;12.80;99.90;;;;;;4970002;28;20799;-66
2023/08/07 04:45:44;;;;;;;5.90;2.27;;;12.80;99.90;;;;;;4971094;28;20490;-66
2023/08/07 04:48:14;;;;;;;5.90;2.17;;;12.90;99.90;;;;;;4971113;28;20550;-65
2023/08/07 04:50:42;;;;;;;7.70;2.60;;;12.80;99.90;;;;;;4971212;28;20651;-66
2023/08/07 04:53:10;;;;;;;3.13;1.80;;;12.90;99.90;;;;;;4969719;28;20448;-67
2023/08/07 04:55:39;;;;;;;2.40;1.70;;;12.90;99.90;;;;;;4985814;28;20467;-66
2023/08/07 05:05:00;;;;;;;3.10;2.17;;;12.90;99.90;;;;;;4969397;28;20445;-63
2023/08/07 05:07:28;;;;;;;3.17;2.13;;;12.90;99.90;;;;;;4990435;28;20437;-64
2023/08/07 05:09:59;;;;;;;3.20;1.63;;;13.00;99.90;;;;;;4989052;28;20498;-66
2023/08/07 05:12:27;;;;;;;2.40;1.40;;;13.00;99.90;;;;;;4969938;28;20971;-65
2023/08/07 05:14:55;;;;;;;2.43;1.37;;;13.00;99.90;;;;;;4971111;28;20465;-65
2023/08/07 05:17:23;;;;;;;4.50;1.80;;;13.00;99.90;;;;;;4971941;28;20444;-66
2023/08/07 05:19:51;;;;;;;4.40;1.80;;;13.10;99.90;;;;;;4974673;28;20442;-66
2023/08/07 05:22:21;;;;;;;3.07;1.50;;;13.10;99.90;;;;;;4974208;28;20455;-65
2023/08/07 05:24:49;;;;;;;2.70;1.70;;;13.10;99.90;;;;;;4974387;28;20474;-66
2023/08/07 05:27:17;;;;;;;2.70;1.90;;;13.10;99.90;;;;;;4975636;28;20479;-66
2023/08/07 05:29:45;;;;;;;5.10;3.47;;;13.20;99.90;;;;;;4974761;28;20890;-66
2023/08/07 05:32:15;;;;;;;4.67;2.03;;;13.20;99.90;;;;;;4973969;28;21244;-66
2023/08/07 05:34:44;;;;;;;5.80;2.23;;;13.20;99.90;;;;;;4973671;28;20562;-66
2023/08/07 05:37:12;;;;;;;5.40;2.00;;;13.20;99.90;;;;;;4974109;28;20543;-65
2023/08/07 05:39:41;;;;;;;5.80;2.40;;;13.20;99.90;;;;;;4974660;28;20881;-66
2023/08/07 05:42:10;;;;;;;3.10;1.70;;;13.30;99.90;;;;;;4973906;28;20544;-64
2023/08/07 05:44:43;;;;;;;5.67;2.00;;;13.30;99.90;;;;;;4987954;28;20510;-65
2023/08/07 05:47:11;;;;;;;5.57;1.33;;;13.40;99.90;;;;;;4993442;28;20471;-65
2023/08/07 05:49:39;;;;;;;6.00;1.93;;;13.50;99.90;;;;;;4993319;28;20533;-65
2023/08/07 05:52:08;;;;;;;5.27;1.83;;;13.40;99.90;;;;;;4977234;28;20453;-64
2023/08/07 05:54:36;;;;;;;2.53;2.00;;;13.40;99.90;;;;;;4972925;28;20497;-65
2023/08/07 05:57:06;;;;;;;2.77;1.73;;;13.40;99.90;;;;;;4971095;28;20492;-65
2023/08/07 05:59:35;;;;;;;4.67;2.30;;;13.40;99.90;;;;;;4973880;28;20568;-65
2023/08/07 06:02:04;;;;;;;2.90;1.90;;;13.40;99.90;;;;;;4973643;28;20449;-65
2023/08/07 06:04:33;;;;;;;5.67;2.03;;;13.50;99.90;;;;;;4975841;28;20836;-63
2023/08/07 06:07:04;;;;;;;6.40;1.97;;;13.60;99.90;;;;;;4993352;28;20518;-66
2023/08/07 06:09:32;;;;;;;3.57;1.60;;;13.60;99.90;;;;;;4993211;28;20440;-66
2023/08/07 06:12:00;;;;;;;3.63;1.80;;;13.60;99.90;;;;;;4992762;28;21075;-66
2023/08/07 06:14:30;;;;;;;2.53;1.80;;;13.60;99.90;;;;;;4991951;28;20524;-65
2023/08/07 06:17:00;;;;;;;2.00;1.40;;;13.70;99.90;;;;;;4992620;28;20516;-65
2023/08/07 06:19:28;;;;;;;2.53;1.83;;;13.70;99.90;;;;;;4993080;28;20897;-66
2023/08/07 06:22:00;;;;;;;3.10;1.60;;;13.70;99.90;;;;;;4978549;28;20461;-64
2023/08/07 06:24:28;;;;;;;4.73;1.93;;;13.80;99.90;;;;;;4972425;28;20557;-65
2023/08/07 06:26:56;;;;;;;3.93;1.67;;;13.80;99.90;;;;;;4973421;28;20589;-65
2023/08/07 06:29:25;;;;;;;4.47;2.30;;;13.80;99.90;;;;;;4973359;28;20445;-65
2023/08/07 06:31:54;;;;;;;4.10;2.03;;;13.80;99.90;;;;;;4973580;28;20555;-66
2023/08/07 06:34:23;;;;;;;8.37;2.47;;;13.80;99.90;;;;;;4972486;28;20996;-66
2023/08/07 06:36:51;;;;;;;6.33;2.10;;;13.90;99.90;;;;;;4973403;28;20436;-65
2023/08/07 06:39:19;;;;;;;2.90;2.27;;;14.00;99.90;;;;;;4973295;28;20452;-66
2023/08/07 06:41:47;;;;;;;3.80;2.20;;;14.20;99.90;;;;;;4973150;28;21194;-65
2023/08/07 06:44:16;;;;;;;3.00;1.47;;;14.30;99.90;;;;;;4972338;28;20825;-66
2023/08/07 06:46:44;;;;;;;2.47;1.40;;;14.20;99.90;;;;;;4973520;28;20930;-66
2023/08/07 06:49:13;;;;;;;3.50;1.80;;;14.10;99.90;;;;;;4973436;28;20456;-67
2023/08/07 06:51:41;;;;;;;3.13;1.77;;;14.10;99.90;;;;;;4992936;28;20477;-67
2023/08/07 06:54:09;;;;;;;4.20;1.80;;;14.10;99.90;;;;;;4991057;28;20547;-65
2023/08/07 06:56:40;;;;;;;6.60;1.93;;;14.20;99.90;;;;;;4992668;28;20442;-65
2023/08/07 06:59:08;;;;;;;2.80;1.57;;;14.20;99.90;;;;;;4992589;28;20450;-65
2023/08/07 07:01:37;;;;;;;4.03;1.70;;;14.20;99.90;;;;;;4992431;28;20446;-66
2023/08/07 07:04:05;;;;;;;1.50;1.40;;;14.30;99.90;;;;;;4982915;28;20486;-66
2023/08/07 07:06:35;;;;;;;2.80;1.60;;;14.30;99.90;;;;;;4972792;28;20488;-66
2023/08/07 07:09:03;;;;;;;5.63;1.57;;;14.50;99.90;;;;;;4972643;28;20476;-65
2023/08/07 07:11:31;;;;;;;4.60;1.60;;;14.70;99.90;;;;;;4972679;28;20496;-65
2023/08/07 07:13:59;;;;;;;5.67;1.90;;;14.90;99.90;;;;;;4971558;28;20467;-66
2023/08/07 07:16:27;;;;;;;1.40;1.30;;;14.90;99.90;;;;;;4972498;28;20440;-66
2023/08/07 07:18:58;;;;;;;1.93;1.33;;;15.00;99.90;;;;;;4972622;28;20452;-66
2023/08/07 07:21:26;;;;;;;4.50;1.33;;;15.20;99.90;;;;;;4990003;28;20540;-66
2023/08/07 07:23:55;;;;;;;8.60;1.80;;;15.20;99.90;;;;;;4990793;28;20467;-66
2023/08/07 07:26:24;;;;;;;2.10;1.20;;;15.30;99.90;;;;;;4991826;28;20473;-66
2023/08/07 07:28:52;;;;;;;2.17;1.20;;;15.40;99.90;;;;;;4991705;28;20945;-66
2023/08/07 07:31:20;;;;;;;3.43;1.17;;;15.60;99.90;;;;;;4979557;28;20483;-66
2023/08/07 07:33:48;;;;;;;2.50;1.40;;;15.40;99.90;;;;;;4970964;28;20980;-67
2023/08/07 07:36:17;;;;;;;3.00;1.60;;;15.30;99.90;;;;;;4972427;28;20599;-66
2023/08/07 07:38:47;;;;;;;2.60;1.50;;;15.40;99.90;;;;;;4972415;28;20451;-66
2023/08/07 07:41:17;;;;;;;2.07;1.30;;;15.30;99.90;;;;;;4971636;28;20541;-63
2023/08/07 07:43:45;;;;;;;3.93;1.57;;;15.40;99.90;;;;;;4970697;28;20464;-66
2023/08/07 07:46:13;;;;;;;2.00;1.50;;;15.40;99.90;;;;;;4971883;28;20447;-66
2023/08/07 07:48:42;;;;;;;1.97;1.40;;;15.40;99.90;;;;;;4971714;28;20507;-66
2023/08/07 07:51:10;;;;;;;4.33;2.70;;;15.60;99.90;;;;;;4979955;28;20512;-65
2023/08/07 07:53:38;;;;;;;2.60;1.70;;;15.60;99.90;;;;;;4990013;28;21042;-66
2023/08/07 07:56:06;;;;;;;2.40;1.60;;;15.70;99.90;;;;;;4990809;28;20447;-66
2023/08/07 07:58:36;;;;;;;5.33;1.87;;;15.90;99.90;;;;;;4991055;28;21088;-65
2023/08/07 08:01:04;;;;;;;5.37;1.57;;;15.80;99.90;;;;;;4990875;28;20530;-65
2023/08/07 08:03:32;;;;;;;3.90;1.60;;;15.70;99.90;;;;;;4989677;28;20924;-66
2023/08/07 08:06:00;;;;;;;3.77;1.60;;;15.60;99.90;;;;;;4976100;28;20458;-66
2023/08/07 08:08:28;;;;;;;2.20;1.23;;;15.70;99.90;;;;;;4971407;28;20487;-65
2023/08/07 08:10:56;;;;;;;4.67;1.27;;;15.80;99.90;;;;;;4971309;28;20506;-66
2023/08/07 08:13:25;;;;;;;1.87;1.27;;;15.80;99.90;;;;;;4969826;28;20451;-65
2023/08/07 08:15:55;;;;;;;2.37;1.43;;;15.70;99.90;;;;;;4971339;28;20458;-64
2023/08/07 08:18:23;;;;;;;2.33;1.50;;;15.50;99.90;;;;;;4971370;28;20475;-65
2023/08/07 08:20:51;;;;;;;3.43;1.67;;;15.30;99.90;;;;;;4972525;28;20450;-63
2023/08/07 08:23:19;;;;;;;5.83;1.70;;;15.30;99.90;;;;;;4970146;28;20443;-66
2023/08/07 08:25:55;;;;;;;3.07;1.80;;;15.40;99.90;;;;;;4971137;28;20539;-66
2023/08/07 08:28:23;;;;;;;3.03;1.70;;;15.60;99.90;;;;;;4971063;28;20483;-66
2023/08/07 08:30:52;;;;;;;2.57;1.20;;;15.80;99.90;;;;;;4971115;28;20460;-66
2023/08/07 08:33:21;;;;;;;2.73;2.17;;;15.70;99.90;;;;;;4970090;28;20454;-66
2023/08/07 08:35:50;;;;;;;3.10;2.27;;;15.70;99.90;;;;;;4971136;28;20486;-65
2023/08/07 08:38:19;;;;;;;3.00;1.40;;;15.60;99.90;;;;;;4979380;28;20451;-65
2023/08/07 08:40:48;;;;;;;2.60;1.57;;;15.70;99.90;;;;;;4990504;28;20452;-66
2023/08/07 08:43:17;;;;;;;2.97;1.23;;;15.80;99.90;;;;;;4989163;28;20454;-64
2023/08/07 08:45:45;;;;;;;3.80;1.63;;;15.80;99.90;;;;;;4990148;28;21028;-65
2023/08/07 08:48:21;;;;;;;3.47;1.80;;;16.00;99.90;;;;;;4990371;28;21010;-66
2023/08/07 08:50:51;;;;;;;1.80;1.50;;;16.40;99.90;;;;;;4990324;28;20533;-65
2023/08/07 08:53:22;;;;;;;1.67;1.20;;;16.60;99.90;;;;;;4988401;28;20454;-66
2023/08/07 08:55:50;;;;;;;1.90;0.87;;;16.60;99.90;;;;;;4989638;28;20854;-66
2023/08/07 08:58:19;;;;;;;1.37;1.13;;;16.70;99.90;;;;;;4990265;28;20815;-65
2023/08/07 09:00:49;;;;;;;2.73;1.10;;;16.60;99.90;;;;;;4990455;28;20440;-66
2023/08/07 09:03:20;;;;;;;1.77;1.43;;;16.60;99.90;;;;;;4989241;28;21015;-65
2023/08/07 09:05:50;;;;;;;2.63;1.20;;;16.70;99.90;;;;;;4977357;28;20467;-66
2023/08/07 09:08:23;;;;;;;3.47;2.00;;;16.80;99.90;;;;;;4989161;28;20479;-66
2023/08/07 09:10:52;;;;;;;2.20;1.43;;;17.20;99.90;;;;;;4986783;28;20444;-66
2023/08/07 09:13:23;;;;;;;1.70;1.10;;;17.20;99.90;;;;;;4969798;28;20460;-65
2023/08/07 09:15:52;;;;;;;2.17;1.00;;;17.20;99.50;;;;;;4970710;28;20442;-65
2023/08/07 09:18:20;;;;;;;1.80;0.90;;;17.00;99.90;;;;;;4972075;28;20439;-66
2023/08/07 09:20:50;;;;;;;1.70;1.20;;;17.20;99.90;;;;;;4988578;28;20510;-66
2023/08/07 09:23:18;;;;;;;2.90;1.80;;;17.40;99.90;;;;;;4988178;28;20518;-66
2023/08/07 09:25:46;;;;;;;2.07;1.00;;;17.70;99.90;;;;;;4990110;28;20493;-64
2023/08/07 09:28:15;;;;;;;1.83;1.07;;;17.70;99.30;;;;;;4989916;28;20476;-65
2023/08/07 09:30:44;;;;;;;1.50;0.90;;;17.60;99.90;;;;;;4990261;28;20999;-65
2023/08/07 09:33:12;;;;;;;2.90;1.10;;;17.30;99.30;;;;;;4988921;28;20444;-66
2023/08/07 09:35:41;;;;;;;2.07;1.17;;;17.30;99.90;;;;;;4988259;28;20477;-65
2023/08/07 09:38:10;;;;;;;1.70;1.40;;;17.20;99.30;;;;;;4975600;28;20452;-65
2023/08/07 09:40:38;;;;;;;2.63;1.70;;;17.10;98.40;;;;;;4970366;28;20452;-66
2023/08/07 09:43:07;;;;;;;4.03;1.70;;;17.30;99.30;;;;;;4969161;28;20541;-66
2023/08/07 09:45:36;;;;;;;1.57;1.07;;;17.40;98.40;;;;;;4970632;28;20480;-66
2023/08/07 09:48:06;;;;;;;2.63;1.10;;;17.40;99.00;;;;;;4970329;28;20516;-65
2023/08/07 09:50:35;;;;;;;1.90;1.13;;;17.40;98.10;;;;;;4971672;28;20444;-65
2023/08/07 09:53:04;;;;;;;2.23;1.60;;;17.20;98.00;;;;;;4969452;28;20448;-65
2023/08/07 09:55:34;;;;;;;1.27;1.17;;;17.10;96.90;;;;;;4970366;28;20909;-65
2023/08/07 09:58:02;;;;;;;3.53;1.63;;;17.10;96.30;;;;;;4970997;28;21006;-66
2023/08/07 10:00:35;;;;;;;1.60;1.20;;;17.30;97.00;;;;;;4970728;28;20451;-65
2023/08/07 10:03:04;;;;;;;2.20;1.50;;;17.50;96.00;;;;;;4969767;28;20438;-66
2023/08/07 10:05:33;;;;;;;2.60;1.30;;;17.70;97.00;;;;;;4980100;28;20481;-66
2023/08/07 10:08:01;;;;;;;4.70;1.00;;;18.00;95.90;;;;;;4993091;28;20485;-66
2023/08/07 10:10:30;;;;;;;3.17;1.20;;;18.30;95.40;;;;;;4993725;28;20481;-66
2023/08/07 10:13:02;;;;;;;1.20;1.00;;;18.10;94.80;;;;;;4991862;28;20467;-65
2023/08/07 10:15:33;;;;;;;2.37;1.60;;;17.80;94.90;;;;;;4993153;28;20497;-66
2023/08/07 10:18:04;;;;;;;2.83;1.30;;;18.00;95.30;;;;;;4993420;28;20491;-65
2023/08/07 10:20:33;;;;;;;2.43;1.10;;;18.30;94.20;;;;;;4993361;28;20556;-66
2023/08/07 10:23:07;;;;;;;1.50;1.27;;;18.70;93.70;;;;;;4974952;28;20456;-66
2023/08/07 10:25:38;;;;;;;1.50;1.17;;;19.30;90.90;;;;;;4973820;28;20522;-65
2023/08/07 10:28:11;;;;;;;2.03;1.40;;;19.20;90.80;;;;;;4973246;28;20506;-65
2023/08/07 10:30:41;;;;;;;1.47;1.13;;;18.60;91.00;;;;;;4973702;28;20443;-66
2023/08/07 10:33:12;;;;;;;8.70;1.77;;;18.10;91.70;;;;;;4972295;28;20494;-65
2023/08/07 10:35:46;;;;;;;2.60;1.43;;;17.70;94.20;;;;;;4973262;28;20549;-65
2023/08/07 10:38:14;;;;;;;2.00;1.20;;;17.60;92.20;;;;;;4980807;28;20454;-66
2023/08/07 10:41:00;;;;;;;1.83;1.10;;;17.90;92.90;;;;;;4992483;28;20439;-66
2023/08/07 10:43:30;;;;;;;3.03;1.10;;;18.20;91.60;;;;;;4991396;28;20438;-65
2023/08/07 10:46:05;;;;;;;3.43;1.30;;;18.00;92.30;;;;;;4992663;28;20538;-65
2023/08/07 10:48:40;;;;;;;2.17;1.30;;;17.90;92.80;;;;;;4992424;28;20517;-65
2023/08/07 10:51:08;;;;;;;4.30;1.47;;;17.90;93.20;;;;;;4984678;28;20838;-65
2023/08/07 10:53:40;;;;;;;1.83;1.37;;;17.90;92.90;;;;;;4971908;28;20821;-65
2023/08/07 10:56:10;;;;;;;2.47;1.50;;;17.70;92.80;;;;;;4972957;28;20513;-64
2023/08/07 10:58:41;;;;;;;3.00;1.47;;;17.60;92.30;;;;;;4973053;28;20486;-66
2023/08/07 11:01:20;;;;;;;2.30;1.20;;;17.50;92.00;;;;;;4973029;28;20438;-66
2023/08/07 11:03:54;;;;;;;2.20;1.33;;;17.30;93.10;;;;;;4971404;28;20472;-65
2023/08/07 11:06:27;;;;;;;3.47;1.37;;;17.10;91.40;;;;;;4990366;28;21010;-65
2023/08/07 11:08:55;;;;;;;3.03;1.30;;;17.00;91.30;;;;;;4992219;28;20981;-66
2023/08/07 11:11:23;;;;;;;1.60;1.50;;;16.80;92.10;;;;;;4991963;28;20546;-66
2023/08/07 11:13:53;;;;;;;1.60;1.10;;;16.80;93.00;;;;;;4990659;28;20557;-66
2023/08/07 11:16:21;;;;;;;1.70;1.30;;;16.80;92.80;;;;;;4991137;28;20526;-66
2023/08/07 11:18:51;;;;;;;3.27;2.33;;;16.70;93.90;;;;;;4991619;28;20465;-66
2023/08/07 11:21:20;;;;;;;2.50;1.30;;;16.60;93.90;;;;;;4990066;28;20458;-65
2023/08/07 11:23:49;;;;;;;3.83;1.37;;;16.60;95.20;;;;;;4990473;28;21053;-66
2023/08/07 11:26:21;;;;;;;2.17;1.73;;;16.60;93.40;;;;;;4991525;28;20487;-66
2023/08/07 11:28:50;;;;;;;2.33;1.37;;;16.60;93.70;;;;;;4991708;28;20581;-67
2023/08/07 11:31:19;;;;;;;5.13;1.70;;;16.70;93.60;;;;;;4991580;28;20435;-65
2023/08/07 11:33:50;;;;;;;2.50;1.20;;;16.80;93.20;;;;;;4990353;28;21035;-66
2023/08/07 11:36:18;;;;;;;2.33;1.50;;;16.90;93.40;;;;;;4991744;28;20451;-66
2023/08/07 11:38:47;;;;;;;1.83;1.67;;;17.20;93.20;;;;;;4974372;28;20479;-66
2023/08/07 11:41:17;;;;;;;3.20;1.77;;;17.50;93.10;;;;;;4972205;28;20530;-66
2023/08/07 11:43:46;;;;;;;1.87;1.60;;;17.50;92.10;;;;;;4970685;28;21033;-65
2023/08/07 11:46:16;;;;;;;2.50;1.27;;;17.50;91.70;;;;;;4971828;28;20446;-65
2023/08/07 11:48:46;;;;;;;2.17;1.60;;;17.30;92.30;;;;;;4971988;28;20438;-66
2023/08/07 11:51:16;;;;;;;2.50;1.60;;;17.10;92.90;;;;;;4980317;28;20453;-65
2023/08/07 11:53:44;;;;;;;1.87;1.50;;;16.90;93.70;;;;;;4990106;28;20443;-66
2023/08/07 11:56:15;;;;;;;1.63;1.40;;;16.80;94.20;;;;;;4991084;28;20439;-66
2023/08/07 11:58:45;;;;;;;2.20;1.47;;;16.70;93.80;;;;;;4991290;28;20451;-66
2023/08/07 12:01:16;;;;;;;2.43;1.63;;;16.70;94.00;;;;;;4989069;28;20533;-65
2023/08/07 12:03:54;;;;;;;1.90;1.70;;;16.60;95.00;;;;;;4990160;28;20519;-67
2023/08/07 12:06:23;;;;;;;1.73;1.50;;;16.60;94.90;;;;;;4990989;28;20909;-66
2023/08/07 12:08:54;;;;;;;2.17;1.30;;;16.70;94.50;;;;;;4990328;28;20482;-66
2023/08/07 12:11:23;;;;;;;3.37;1.77;;;16.80;94.90;;;;;;4990910;28;20451;-66
2023/08/07 12:13:51;;;;;;;3.40;1.70;;;16.90;95.60;;;;;;4984136;28;20519;-66
2023/08/07 12:16:21;;;;;;;2.23;1.67;;;17.20;96.00;;;;;;4971306;28;20456;-66
2023/08/07 12:18:51;;;;;;;2.53;1.40;;;17.50;96.40;;;;;;4971415;28;20442;-66
2023/08/07 12:21:23;;;;;;;2.33;1.67;;;17.60;96.90;;;;;;4971341;28;20448;-66
2023/08/07 12:23:52;;;;;;;2.87;1.50;;;17.40;95.00;;;;;;4970287;28;20535;-65
2023/08/07 12:26:20;;;;;;;3.00;1.40;;;17.50;95.20;;;;;;4971490;28;20448;-66
2023/08/07 12:28:52;;;;;;;1.60;1.37;;;17.60;95.30;;;;;;4971141;28;20474;-66
2023/08/07 12:31:20;;;;;;;2.03;1.50;;;17.90;95.00;;;;;;4985760;28;20489;-66
2023/08/07 12:33:48;;;;;;;2.10;1.60;;;18.10;95.40;;;;;;4989344;28;20462;-66
2023/08/07 12:36:17;;;;;;;3.40;1.33;;;18.10;95.00;;;;;;4990653;28;20447;-66
2023/08/07 12:38:48;;;;;;;2.30;1.63;;;18.00;95.40;;;;;;4990693;28;20438;-66
2023/08/07 12:41:17;;;;;;;2.70;1.50;;;17.90;95.10;;;;;;4990473;28;20434;-66
2023/08/07 12:43:48;;;;;;;1.97;1.60;;;17.70;95.30;;;;;;4989186;28;20600;-66
2023/08/07 12:46:16;;;;;;;7.50;2.43;;;18.00;96.70;;;;;;4988739;28;20542;-66
2023/08/07 12:48:47;;;;;;;1.67;1.47;;;18.30;95.40;;;;;;4990513;28;20474;-66
2023/08/07 12:51:15;;;;;;;1.60;1.50;;;18.80;95.90;;;;;;4990554;28;20509;-66
2023/08/07 12:53:45;;;;;;;2.00;1.80;;;19.00;95.20;;;;;;4989477;28;21083;-66
2023/08/07 12:56:14;;;;;;;1.90;1.53;;;18.90;93.20;;;;;;4990431;28;20562;-65
2023/08/07 12:58:42;;;;;;;1.60;1.43;;;19.00;94.40;;;;;;4990660;28;20449;-66
2023/08/07 13:01:10;;;;;;;2.60;1.60;;;19.60;93.40;;;;;;4990480;28;20450;-67
2023/08/07 13:03:39;;;;;;;1.90;1.70;;;20.40;92.40;;;;;;4987537;28;20458;-66